Date,TemperatureHighF,TemperatureAvgF,TemperatureLowF,DewpointHighF,DewpointAvgF,DewpointLowF,HumidityHigh,HumidityAvg,HumidityLow,PressureMaxIn,PressureMinIn,WindSpeedMaxMPH,WindSpeedAvgMPH,GustSpeedMaxMPH,PrecipitationSumIn
2013-1-1,14.6,5.5,-4.0,10.7,0.9,-7.6,86,81,71,30.36,30.16,12,3,12,0.00
2013-1-2,24.0,11.9,1.4,22.0,9.0,-1.6,92,88,81,30.16,30.03,14,4,14,0.00
2013-1-3,14.3,11.0,8.5,10.5,7.2,4.0,90,84,79,30.35,30.25,16,6,16,0.00
2013-1-4,26.7,19.1,13.1,20.6,15.0,10.7,92,84,74,30.26,30.17,22,7,22,0.00
2013-1-5,28.8,19.3,11.3,24.3,16.0,8.7,93,87,81,30.18,29.92,16,5,21,0.00
2013-1-6,22.0,15.1,9.7,17.7,11.3,5.3,90,84,77,30.30,30.08,15,4,15,0.00
2013-1-7,34.8,27.3,21.2,28.6,23.0,17.1,95,84,76,30.18,29.99,28,8,28,0.00
2013-1-8,37.1,26.2,13.0,32.9,23.5,10.9,96,90,82,30.04,29.84,22,6,22,0.05
2013-1-9,39.4,30.5,22.7,31.1,26.7,20.8,93,86,66,30.41,30.04,17,5,21,0.00
2013-1-10,36.8,34.2,32.8,33.4,31.4,27.8,98,90,70,30.09,29.74,22,12,24,0.12
2013-1-11,42.8,37.1,33.5,42.8,36.9,32.9,100,99,98,29.74,29.44,19,6,19,0.01
2013-1-12,38.4,18.2,10.2,38.4,13.0,4.9,100,80,70,30.11,29.46,33,8,33,0.00
2013-1-13,11.8,7.6,3.4,6.6,2.5,-1.9,83,79,76,30.35,30.06,15,3,15,0.00
2013-1-14,23.9,14.1,5.5,15.1,9.1,2.2,87,80,68,30.49,30.35,11,3,14,0.00
2013-1-15,31.5,20.7,13.9,21.3,14.4,9.4,83,77,62,30.40,30.00,19,6,19,0.00
2013-1-16,41.3,28.8,18.5,35.2,24.5,13.8,92,84,76,30.23,29.81,23,8,25,0.00
2013-1-17,29.8,18.7,8.2,21.7,12.5,2.2,89,77,60,30.45,30.23,15,2,15,0.00
2013-1-18,46.3,35.1,23.9,35.6,29.4,21.1,91,80,64,30.34,29.81,29,11,30,0.00
2013-1-19,43.9,31.1,7.2,35.1,25.0,-0.0,90,78,68,30.24,29.75,27,7,29,0.00
2013-1-20,11.4,6.8,3.0,6.8,1.5,-2.3,86,78,73,30.43,30.24,17,4,18,0.00
2013-1-21,5.3,-1.1,-8.9,-2.1,-7.8,-15.6,81,72,63,30.45,30.35,16,4,16,0.00
2013-1-22,10.7,3.3,-3.6,6.6,-3.2,-9.0,83,74,64,30.49,30.33,10,2,10,0.00
2013-1-23,21.0,12.3,0.4,14.1,5.6,-6.8,84,74,54,30.60,30.21,21,5,21,0.00
2013-1-24,16.7,5.0,-1.8,5.4,-5.4,-11.1,71,62,49,30.69,30.27,24,6,24,0.00
2013-1-25,26.5,15.4,4.9,18.5,7.3,-0.3,81,70,50,30.34,30.08,23,6,23,0.00
2013-1-26,26.7,5.4,1.1,14.0,0.4,-2.8,85,79,58,30.40,30.22,16,3,21,0.00
2013-1-27,32.2,30.9,24.0,31.7,29.2,14.9,98,94,63,30.19,29.78,23,4,25,0.01
2013-1-28,36.2,31.7,29.1,36.2,31.3,28.4,100,98,97,29.92,29.57,17,1,17,0.00
2013-1-29,37.9,33.1,29.5,37.9,32.6,26.8,100,98,90,29.67,29.53,23,4,23,0.03
2013-1-30,29.4,18.6,7.9,26.8,15.2,3.6,95,86,80,29.83,29.54,26,7,26,0.00
2013-1-31,7.8,0.1,-6.1,3.6,-5.1,-11.7,84,78,71,30.40,29.83,21,6,21,0.00